Kihei, HI

5:09 PM HST on October 24, 2014 (GMT -1000)
Kihei | Change Station
CLOSE
Current Station
Personal Weather Station
Location: Kihei, HI
Elevation: 23 ft
Nearby Weather Stations

Elev 23 ft 20.74 °N, 156.46 °W | Updated 2 minutes ago

Partly Cloudy
Partly Cloudy
82.9 °F
Feels Like 88 °F
N
0.0
Wind Variable Wind from NW
Gusts 5.0 mph

Today
High -- | Low -- °F
--% Chance of Precip.
Yesterday
High -- | Low -- °F
Precip. -- in
6:24 AM 5:55 PM
New Moon, 2% visible
Pressure 29.99 in
Visibility 10.0 miles
Clouds Few 4500 ft
Heat Index 88 °F
Dew Point 72 °F
Humidity 71%
Rainfall 0.00 in
Snow Depth Not available.
UV 1 out of 12
Pollen Not available.
Air Quality Not available.
Flu Activity Sporadic
METAR PHOG 250254Z 06015G22KT 10SM FEW045 28/19 A2997 RMK AO2 SLP153 T02830189 53002 $

More Conditions Fewer Conditions

Pressure 29.99 in
Visibility 10.0 miles
Clouds Few 4500 ft
Heat Index 88 °F
Dew Point 72 °F
Humidity 71%
Rainfall 0.00 in
Snow Depth Not available.
UV 1 out of 12
Pollen Not available.
Air Quality Not available.
Flu Activity Sporadic
METAR PHOG 250254Z 06015G22KT 10SM FEW045 28/19 A2997 RMK AO2 SLP153 T02830189 53002 $

More Conditions Fewer Conditions

10-Day Weather Forecast

Almanac

Astronomy

Oct. 24, 2014 Rise Set
Actual Time 6:24 AM HST 5:55 PM HST
Civil Twilight 6:02 AM HST 6:17 PM HST
Nautical Twilight 5:36 AM HST 6:43 PM HST
Astronomical Twilight 5:10 AM HST 7:09 PM HST
Moon 7:10 AM HST (10/24) 6:49 PM HST (10/24)
Length of Visible Light 12h 15m
Length of Day
11h 30m
Tomorrow will be 1m 4s shorter.
New Moon, 2% of the Moon is Illuminated
Today
New Moon
Oct 30
First Quarter
Nov 6
Full
Nov 14
Last Quarter
Nov 22
New

Today's Extremes

State Highs State Lows

Community

WunderPhotos

Upload Photos

1,764,762 photos uploaded!

Nearby

Snow Depth

Station Depth Elevation
No new snow has been reported.

Earthquake Activity

City Distance Mag. Time & Date
No recent earthquake activity has been reported nearby.
Minimum magnitude displayed is 2.5.

Coastal Water Temperatures

Place Temperature
No Stations Reporting

Nearby Weather Stations